sensor_id;sensor_type;location;lat;lon;timestamp;temperature;humidity
31379;DHT22;61664;48.112;11.662;2023-09-08T00:00:20;20.10;56.80
31379;DHT22;61664;48.112;11.662;2023-09-08T00:02:47;20.00;56.90
31379;DHT22;61664;48.112;11.662;2023-09-08T00:05:14;20.00;57.00
31379;DHT22;61664;48.112;11.662;2023-09-08T00:07:41;20.00;57.00
31379;DHT22;61664;48.112;11.662;2023-09-08T00:10:09;19.90;57.00
31379;DHT22;61664;48.112;11.662;2023-09-08T00:12:38;19.90;57.00
31379;DHT22;61664;48.112;11.662;2023-09-08T00:15:06;19.90;57.10
31379;DHT22;61664;48.112;11.662;2023-09-08T00:17:33;19.90;57.20
31379;DHT22;61664;48.112;11.662;2023-09-08T00:20:00;19.90;57.20
31379;DHT22;61664;48.112;11.662;2023-09-08T00:22:27;19.90;57.20
31379;DHT22;61664;48.112;11.662;2023-09-08T00:24:54;19.90;57.30
31379;DHT22;61664;48.112;11.662;2023-09-08T00:27:21;19.90;57.30
31379;DHT22;61664;48.112;11.662;2023-09-08T00:29:48;19.80;57.20
31379;DHT22;61664;48.112;11.662;2023-09-08T00:32:16;19.80;57.20
31379;DHT22;61664;48.112;11.662;2023-09-08T00:34:43;19.80;57.20
31379;DHT22;61664;48.112;11.662;2023-09-08T00:37:09;19.80;57.20
31379;DHT22;61664;48.112;11.662;2023-09-08T00:39:38;19.80;57.30
31379;DHT22;61664;48.112;11.662;2023-09-08T00:42:05;19.70;57.30
31379;DHT22;61664;48.112;11.662;2023-09-08T00:44:34;19.70;57.20
31379;DHT22;61664;48.112;11.662;2023-09-08T00:47:01;19.70;57.30
31379;DHT22;61664;48.112;11.662;2023-09-08T00:49:28;19.60;57.30
31379;DHT22;61664;48.112;11.662;2023-09-08T00:51:55;19.60;57.30
31379;DHT22;61664;48.112;11.662;2023-09-08T00:54:22;19.50;57.40
31379;DHT22;61664;48.112;11.662;2023-09-08T00:56:55;19.50;57.50
31379;DHT22;61664;48.112;11.662;2023-09-08T00:59:24;19.50;58.20
31379;DHT22;61664;48.112;11.662;2023-09-08T01:01:52;19.40;57.70
31379;DHT22;61664;48.112;11.662;2023-09-08T01:04:20;19.40;57.80
31379;DHT22;61664;48.112;11.662;2023-09-08T01:06:48;19.40;58.00
31379;DHT22;61664;48.112;11.662;2023-09-08T01:09:17;19.30;58.10
31379;DHT22;61664;48.112;11.662;2023-09-08T01:11:45;19.20;58.10
31379;DHT22;61664;48.112;11.662;2023-09-08T01:14:13;19.20;58.10
31379;DHT22;61664;48.112;11.662;2023-09-08T01:16:40;19.20;58.10
31379;DHT22;61664;48.112;11.662;2023-09-08T01:19:11;19.20;58.10
31379;DHT22;61664;48.112;11.662;2023-09-08T01:27:47;19.20;58.70
31379;DHT22;61664;48.112;11.662;2023-09-08T01:30:16;19.10;58.30
31379;DHT22;61664;48.112;11.662;2023-09-08T01:32:45;19.10;58.20
31379;DHT22;61664;48.112;11.662;2023-09-08T01:35:13;19.00;58.20
31379;DHT22;61664;48.112;11.662;2023-09-08T01:37:41;19.00;58.40
31379;DHT22;61664;48.112;11.662;2023-09-08T01:40:12;19.00;58.50
31379;DHT22;61664;48.112;11.662;2023-09-08T01:42:40;19.00;58.50
31379;DHT22;61664;48.112;11.662;2023-09-08T01:45:08;19.00;58.50
31379;DHT22;61664;48.112;11.662;2023-09-08T01:47:36;18.90;58.50
31379;DHT22;61664;48.112;11.662;2023-09-08T01:50:04;18.90;58.60
31379;DHT22;61664;48.112;11.662;2023-09-08T01:52:31;18.90;58.60
31379;DHT22;61664;48.112;11.662;2023-09-08T01:54:58;18.90;58.60
31379;DHT22;61664;48.112;11.662;2023-09-08T01:57:25;18.90;58.80
31379;DHT22;61664;48.112;11.662;2023-09-08T01:59:51;18.80;58.70
31379;DHT22;61664;48.112;11.662;2023-09-08T02:02:18;18.80;58.80
31379;DHT22;61664;48.112;11.662;2023-09-08T02:04:45;18.80;58.70
31379;DHT22;61664;48.112;11.662;2023-09-08T02:07:13;18.80;58.80
31379;DHT22;61664;48.112;11.662;2023-09-08T02:09:40;18.80;59.30
31379;DHT22;61664;48.112;11.662;2023-09-08T02:12:08;18.70;58.80
31379;DHT22;61664;48.112;11.662;2023-09-08T02:14:35;18.70;58.90
31379;DHT22;61664;48.112;11.662;2023-09-08T02:17:02;18.70;58.90
31379;DHT22;61664;48.112;11.662;2023-09-08T02:19:29;18.70;58.90
31379;DHT22;61664;48.112;11.662;2023-09-08T02:21:56;18.70;59.00
31379;DHT22;61664;48.112;11.662;2023-09-08T02:24:23;18.60;58.90
31379;DHT22;61664;48.112;11.662;2023-09-08T02:26:50;18.60;59.00
31379;DHT22;61664;48.112;11.662;2023-09-08T02:29:18;18.60;59.10
31379;DHT22;61664;48.112;11.662;2023-09-08T02:31:45;18.60;59.00
31379;DHT22;61664;48.112;11.662;2023-09-08T02:34:12;18.60;59.00
31379;DHT22;61664;48.112;11.662;2023-09-08T02:36:39;18.60;59.10
31379;DHT22;61664;48.112;11.662;2023-09-08T02:39:06;18.60;59.10
31379;DHT22;61664;48.112;11.662;2023-09-08T02:41:33;18.60;59.20
31379;DHT22;61664;48.112;11.662;2023-09-08T02:44:01;18.60;59.10
31379;DHT22;61664;48.112;11.662;2023-09-08T02:46:28;18.50;59.00
31379;DHT22;61664;48.112;11.662;2023-09-08T02:48:55;18.50;59.00
31379;DHT22;61664;48.112;11.662;2023-09-08T02:51:22;18.50;59.10
31379;DHT22;61664;48.112;11.662;2023-09-08T02:53:49;18.50;59.10
31379;DHT22;61664;48.112;11.662;2023-09-08T02:56:16;18.50;59.20
31379;DHT22;61664;48.112;11.662;2023-09-08T02:58:43;18.40;59.30
31379;DHT22;61664;48.112;11.662;2023-09-08T03:01:15;18.40;59.30
31379;DHT22;61664;48.112;11.662;2023-09-08T03:03:46;18.40;59.80
31379;DHT22;61664;48.112;11.662;2023-09-08T03:06:17;18.40;59.40
31379;DHT22;61664;48.112;11.662;2023-09-08T03:08:45;18.40;59.40
31379;DHT22;61664;48.112;11.662;2023-09-08T03:11:12;18.40;59.20
31379;DHT22;61664;48.112;11.662;2023-09-08T03:13:39;18.40;59.20
31379;DHT22;61664;48.112;11.662;2023-09-08T03:16:07;18.30;59.30
31379;DHT22;61664;48.112;11.662;2023-09-08T03:18:36;18.30;59.40
31379;DHT22;61664;48.112;11.662;2023-09-08T03:21:04;18.30;59.50
31379;DHT22;61664;48.112;11.662;2023-09-08T03:23:38;18.30;59.50
31379;DHT22;61664;48.112;11.662;2023-09-08T03:26:07;18.30;59.70
31379;DHT22;61664;48.112;11.662;2023-09-08T03:28:36;18.20;59.60
31379;DHT22;61664;48.112;11.662;2023-09-08T03:31:04;18.20;59.70
31379;DHT22;61664;48.112;11.662;2023-09-08T03:33:31;18.20;59.70
31379;DHT22;61664;48.112;11.662;2023-09-08T03:35:59;18.20;59.70
31379;DHT22;61664;48.112;11.662;2023-09-08T03:38:26;18.20;59.70
31379;DHT22;61664;48.112;11.662;2023-09-08T03:40:53;18.20;59.80
31379;DHT22;61664;48.112;11.662;2023-09-08T03:43:20;18.10;59.80
31379;DHT22;61664;48.112;11.662;2023-09-08T03:45:47;18.20;59.90
31379;DHT22;61664;48.112;11.662;2023-09-08T03:48:14;18.10;59.80
31379;DHT22;61664;48.112;11.662;2023-09-08T03:50:41;18.10;59.90
31379;DHT22;61664;48.112;11.662;2023-09-08T03:53:12;18.10;59.80
31379;DHT22;61664;48.112;11.662;2023-09-08T03:55:39;18.10;59.90
31379;DHT22;61664;48.112;11.662;2023-09-08T03:58:07;18.10;59.80
31379;DHT22;61664;48.112;11.662;2023-09-08T04:00:34;18.10;59.80
31379;DHT22;61664;48.112;11.662;2023-09-08T04:03:02;18.10;59.90
31379;DHT22;61664;48.112;11.662;2023-09-08T04:05:29;18.10;59.90
31379;DHT22;61664;48.112;11.662;2023-09-08T04:07:56;18.00;59.80
31379;DHT22;61664;48.112;11.662;2023-09-08T04:10:23;18.00;59.90
31379;DHT22;61664;48.112;11.662;2023-09-08T04:12:53;18.00;59.90
31379;DHT22;61664;48.112;11.662;2023-09-08T04:15:20;18.00;59.90
31379;DHT22;61664;48.112;11.662;2023-09-08T04:17:48;18.00;60.00
31379;DHT22;61664;48.112;11.662;2023-09-08T04:20:15;17.90;60.00
31379;DHT22;61664;48.112;11.662;2023-09-08T04:22:42;17.90;60.00
31379;DHT22;61664;48.112;11.662;2023-09-08T04:25:10;17.90;60.10
31379;DHT22;61664;48.112;11.662;2023-09-08T04:27:38;17.90;60.10
31379;DHT22;61664;48.112;11.662;2023-09-08T04:30:05;17.90;60.30
31379;DHT22;61664;48.112;11.662;2023-09-08T04:32:33;17.80;60.20
31379;DHT22;61664;48.112;11.662;2023-09-08T04:35:00;17.80;60.30
31379;DHT22;61664;48.112;11.662;2023-09-08T04:37:27;17.80;60.40
31379;DHT22;61664;48.112;11.662;2023-09-08T04:39:54;17.80;60.50
31379;DHT22;61664;48.112;11.662;2023-09-08T04:42:21;17.80;60.60
31379;DHT22;61664;48.112;11.662;2023-09-08T04:44:49;17.70;60.60
31379;DHT22;61664;48.112;11.662;2023-09-08T04:47:16;17.70;60.80
31379;DHT22;61664;48.112;11.662;2023-09-08T04:49:43;17.70;60.90
31379;DHT22;61664;48.112;11.662;2023-09-08T04:52:11;17.70;61.00
31379;DHT22;61664;48.112;11.662;2023-09-08T04:54:38;17.70;61.00
31379;DHT22;61664;48.112;11.662;2023-09-08T04:57:06;17.70;61.00
31379;DHT22;61664;48.112;11.662;2023-09-08T04:59:48;17.80;61.10
31379;DHT22;61664;48.112;11.662;2023-09-08T05:02:15;17.80;61.00
31379;DHT22;61664;48.112;11.662;2023-09-08T05:04:42;17.80;60.90
31379;DHT22;61664;48.112;11.662;2023-09-08T05:07:09;17.80;61.00
31379;DHT22;61664;48.112;11.662;2023-09-08T05:09:36;17.80;60.90
31379;DHT22;61664;48.112;11.662;2023-09-08T05:12:03;17.90;60.90
31379;DHT22;61664;48.112;11.662;2023-09-08T05:14:30;17.90;60.90
31379;DHT22;61664;48.112;11.662;2023-09-08T05:16:57;17.90;60.90
31379;DHT22;61664;48.112;11.662;2023-09-08T05:19:24;17.90;60.80
31379;DHT22;61664;48.112;11.662;2023-09-08T05:21:54;18.00;60.80
31379;DHT22;61664;48.112;11.662;2023-09-08T05:24:22;18.00;61.00
31379;DHT22;61664;48.112;11.662;2023-09-08T05:26:49;18.00;60.60
31379;DHT22;61664;48.112;11.662;2023-09-08T05:29:16;18.00;60.70
31379;DHT22;61664;48.112;11.662;2023-09-08T05:31:43;18.00;60.70
31379;DHT22;61664;48.112;11.662;2023-09-08T05:34:10;18.10;60.80
31379;DHT22;61664;48.112;11.662;2023-09-08T05:36:37;18.10;60.80
31379;DHT22;61664;48.112;11.662;2023-09-08T05:39:05;18.10;60.80
31379;DHT22;61664;48.112;11.662;2023-09-08T05:41:32;18.10;60.90
31379;DHT22;61664;48.112;11.662;2023-09-08T05:44:00;18.10;60.90
31379;DHT22;61664;48.112;11.662;2023-09-08T05:46:27;18.10;61.10
31379;DHT22;61664;48.112;11.662;2023-09-08T05:48:55;18.20;61.20
31379;DHT22;61664;48.112;11.662;2023-09-08T05:51:22;18.20;61.20
31379;DHT22;61664;48.112;11.662;2023-09-08T05:53:49;18.20;61.30
31379;DHT22;61664;48.112;11.662;2023-09-08T05:56:18;18.20;61.40
31379;DHT22;61664;48.112;11.662;2023-09-08T05:58:46;18.20;61.60
31379;DHT22;61664;48.112;11.662;2023-09-08T06:01:14;18.30;61.60
31379;DHT22;61664;48.112;11.662;2023-09-08T06:03:42;18.30;61.80
31379;DHT22;61664;48.112;11.662;2023-09-08T06:06:10;18.30;61.90
31379;DHT22;61664;48.112;11.662;2023-09-08T06:08:37;18.40;62.10
31379;DHT22;61664;48.112;11.662;2023-09-08T06:11:03;18.40;62.20
31379;DHT22;61664;48.112;11.662;2023-09-08T06:13:31;18.60;62.30
31379;DHT22;61664;48.112;11.662;2023-09-08T06:15:57;18.50;62.30
31379;DHT22;61664;48.112;11.662;2023-09-08T06:18:27;18.60;62.40
31379;DHT22;61664;48.112;11.662;2023-09-08T06:20:55;18.70;62.40
31379;DHT22;61664;48.112;11.662;2023-09-08T06:23:22;18.80;62.30
31379;DHT22;61664;48.112;11.662;2023-09-08T06:25:49;18.90;62.40
31379;DHT22;61664;48.112;11.662;2023-09-08T06:28:16;19.00;62.40
31379;DHT22;61664;48.112;11.662;2023-09-08T06:30:44;19.10;62.50
31379;DHT22;61664;48.112;11.662;2023-09-08T06:33:11;19.10;62.60
31379;DHT22;61664;48.112;11.662;2023-09-08T06:35:38;19.20;62.80
31379;DHT22;61664;48.112;11.662;2023-09-08T06:38:05;19.30;62.90
31379;DHT22;61664;48.112;11.662;2023-09-08T06:40:32;19.40;63.50
31379;DHT22;61664;48.112;11.662;2023-09-08T06:42:59;19.40;63.10
31379;DHT22;61664;48.112;11.662;2023-09-08T06:45:29;19.60;63.30
31379;DHT22;61664;48.112;11.662;2023-09-08T06:47:56;19.60;63.30
31379;DHT22;61664;48.112;11.662;2023-09-08T06:50:24;19.80;63.50
31379;DHT22;61664;48.112;11.662;2023-09-08T06:52:51;19.90;63.50
31379;DHT22;61664;48.112;11.662;2023-09-08T06:55:19;20.00;63.60
31379;DHT22;61664;48.112;11.662;2023-09-08T06:57:46;20.10;63.70
31379;DHT22;61664;48.112;11.662;2023-09-08T07:00:13;20.20;63.80
31379;DHT22;61664;48.112;11.662;2023-09-08T07:02:44;20.30;63.80
31379;DHT22;61664;48.112;11.662;2023-09-08T07:05:11;20.50;63.90
31379;DHT22;61664;48.112;11.662;2023-09-08T07:07:38;20.50;63.80
31379;DHT22;61664;48.112;11.662;2023-09-08T07:10:07;20.70;63.70
31379;DHT22;61664;48.112;11.662;2023-09-08T07:12:35;20.80;63.80
31379;DHT22;61664;48.112;11.662;2023-09-08T07:15:02;20.90;63.70
31379;DHT22;61664;48.112;11.662;2023-09-08T07:17:29;21.00;63.60
31379;DHT22;61664;48.112;11.662;2023-09-08T07:19:56;21.10;63.40
31379;DHT22;61664;48.112;11.662;2023-09-08T07:22:23;21.20;63.40
31379;DHT22;61664;48.112;11.662;2023-09-08T07:24:50;21.30;63.20
31379;DHT22;61664;48.112;11.662;2023-09-08T07:27:17;21.40;63.10
31379;DHT22;61664;48.112;11.662;2023-09-08T07:29:45;21.60;63.00
31379;DHT22;61664;48.112;11.662;2023-09-08T07:32:14;21.60;62.90
31379;DHT22;61664;48.112;11.662;2023-09-08T07:34:41;21.80;62.80
31379;DHT22;61664;48.112;11.662;2023-09-08T07:37:08;21.80;62.60
31379;DHT22;61664;48.112;11.662;2023-09-08T07:39:35;22.00;62.60
31379;DHT22;61664;48.112;11.662;2023-09-08T07:42:03;22.10;62.60
31379;DHT22;61664;48.112;11.662;2023-09-08T07:44:30;22.20;62.30
31379;DHT22;61664;48.112;11.662;2023-09-08T07:46:57;22.30;62.10
31379;DHT22;61664;48.112;11.662;2023-09-08T07:49:24;22.50;62.10
31379;DHT22;61664;48.112;11.662;2023-09-08T07:51:51;22.60;62.00
31379;DHT22;61664;48.112;11.662;2023-09-08T07:54:18;22.80;61.90
31379;DHT22;61664;48.112;11.662;2023-09-08T07:56:46;23.00;61.40
31379;DHT22;61664;48.112;11.662;2023-09-08T07:59:14;23.50;60.60
31379;DHT22;61664;48.112;11.662;2023-09-08T08:01:41;24.20;59.70
31379;DHT22;61664;48.112;11.662;2023-09-08T08:04:08;25.00;58.80
31379;DHT22;61664;48.112;11.662;2023-09-08T08:06:36;25.70;58.20
31379;DHT22;61664;48.112;11.662;2023-09-08T08:09:03;26.30;57.50
31379;DHT22;61664;48.112;11.662;2023-09-08T08:11:31;26.90;57.10
31379;DHT22;61664;48.112;11.662;2023-09-08T08:13:57;27.50;56.30
31379;DHT22;61664;48.112;11.662;2023-09-08T08:16:24;28.30;55.10
31379;DHT22;61664;48.112;11.662;2023-09-08T08:18:52;29.10;53.70
31379;DHT22;61664;48.112;11.662;2023-09-08T08:21:19;29.80;52.40
31379;DHT22;61664;48.112;11.662;2023-09-08T08:23:46;30.30;51.30
31379;DHT22;61664;48.112;11.662;2023-09-08T08:26:14;30.70;50.60
31379;DHT22;61664;48.112;11.662;2023-09-08T08:28:41;30.90;50.20
31379;DHT22;61664;48.112;11.662;2023-09-08T08:31:08;31.10;49.80
31379;DHT22;61664;48.112;11.662;2023-09-08T08:33:35;31.40;49.30
31379;DHT22;61664;48.112;11.662;2023-09-08T08:36:02;31.70;48.60
31379;DHT22;61664;48.112;11.662;2023-09-08T08:38:30;32.00;47.80
31379;DHT22;61664;48.112;11.662;2023-09-08T08:41:02;32.30;47.20
31379;DHT22;61664;48.112;11.662;2023-09-08T08:43:31;32.50;45.50
31379;DHT22;61664;48.112;11.662;2023-09-08T08:45:59;32.50;46.30
31379;DHT22;61664;48.112;11.662;2023-09-08T08:48:29;32.40;46.60
31379;DHT22;61664;48.112;11.662;2023-09-08T08:50:58;32.20;46.80
31379;DHT22;61664;48.112;11.662;2023-09-08T08:53:27;32.00;47.50
31379;DHT22;61664;48.112;11.662;2023-09-08T08:55:56;31.80;47.80
31379;DHT22;61664;48.112;11.662;2023-09-08T08:58:27;31.60;47.60
31379;DHT22;61664;48.112;11.662;2023-09-08T09:00:56;31.50;48.70
31379;DHT22;61664;48.112;11.662;2023-09-08T09:03:28;31.40;49.10
31379;DHT22;61664;48.112;11.662;2023-09-08T09:05:56;31.40;49.00
31379;DHT22;61664;48.112;11.662;2023-09-08T09:08:23;31.50;49.80
31379;DHT22;61664;48.112;11.662;2023-09-08T09:10:52;31.60;49.30
31379;DHT22;61664;48.112;11.662;2023-09-08T09:13:19;32.00;49.10
31379;DHT22;61664;48.112;11.662;2023-09-08T09:15:46;32.40;48.40
31379;DHT22;61664;48.112;11.662;2023-09-08T09:18:16;32.90;47.40
31379;DHT22;61664;48.112;11.662;2023-09-08T09:20:54;33.40;46.70
31379;DHT22;61664;48.112;11.662;2023-09-08T09:23:32;34.00;44.80
31379;DHT22;61664;48.112;11.662;2023-09-08T09:26:02;34.40;44.00
31379;DHT22;61664;48.112;11.662;2023-09-08T09:28:33;34.70;44.40
31379;DHT22;61664;48.112;11.662;2023-09-08T09:31:01;35.10;44.20
31379;DHT22;61664;48.112;11.662;2023-09-08T09:33:28;35.40;43.50
31379;DHT22;61664;48.112;11.662;2023-09-08T09:35:56;35.60;43.20
31379;DHT22;61664;48.112;11.662;2023-09-08T09:38:26;35.80;43.20
31379;DHT22;61664;48.112;11.662;2023-09-08T09:40:54;35.90;42.40
31379;DHT22;61664;48.112;11.662;2023-09-08T09:43:22;36.00;42.20
31379;DHT22;61664;48.112;11.662;2023-09-08T09:45:53;36.00;41.80
31379;DHT22;61664;48.112;11.662;2023-09-08T09:48:23;36.00;41.70
31379;DHT22;61664;48.112;11.662;2023-09-08T09:50:50;35.90;41.10
31379;DHT22;61664;48.112;11.662;2023-09-08T09:53:19;35.90;41.60
31379;DHT22;61664;48.112;11.662;2023-09-08T09:55:47;35.90;41.40
31379;DHT22;61664;48.112;11.662;2023-09-08T09:58:14;35.80;41.60
31379;DHT22;61664;48.112;11.662;2023-09-08T10:00:42;35.70;41.60
31379;DHT22;61664;48.112;11.662;2023-09-08T10:03:15;35.70;41.60
31379;DHT22;61664;48.112;11.662;2023-09-08T10:05:45;35.80;41.80
31379;DHT22;61664;48.112;11.662;2023-09-08T10:08:14;35.80;41.60
31379;DHT22;61664;48.112;11.662;2023-09-08T10:10:43;36.00;43.40
31379;DHT22;61664;48.112;11.662;2023-09-08T10:13:13;35.90;41.50
31379;DHT22;61664;48.112;11.662;2023-09-08T10:15:48;35.80;41.50
31379;DHT22;61664;48.112;11.662;2023-09-08T10:18:16;35.90;41.70
31379;DHT22;61664;48.112;11.662;2023-09-08T10:20:48;35.90;41.60
31379;DHT22;61664;48.112;11.662;2023-09-08T10:23:41;35.90;41.50
31379;DHT22;61664;48.112;11.662;2023-09-08T10:26:12;36.00;40.80
31379;DHT22;61664;48.112;11.662;2023-09-08T10:28:43;36.10;41.00
31379;DHT22;61664;48.112;11.662;2023-09-08T10:31:12;35.90;40.40
31379;DHT22;61664;48.112;11.662;2023-09-08T10:33:41;35.80;40.40
31379;DHT22;61664;48.112;11.662;2023-09-08T10:36:10;35.80;42.20
31379;DHT22;61664;48.112;11.662;2023-09-08T10:38:38;35.50;40.30
31379;DHT22;61664;48.112;11.662;2023-09-08T10:43:56;35.20;39.70
31379;DHT22;61664;48.112;11.662;2023-09-08T10:46:32;34.90;39.30
31379;DHT22;61664;48.112;11.662;2023-09-08T10:49:02;34.70;40.00
31379;DHT22;61664;48.112;11.662;2023-09-08T10:51:35;34.40;40.10
31379;DHT22;61664;48.112;11.662;2023-09-08T10:54:04;34.10;40.30
31379;DHT22;61664;48.112;11.662;2023-09-08T10:56:54;33.70;40.50
31379;DHT22;61664;48.112;11.662;2023-09-08T10:59:34;33.30;41.20
31379;DHT22;61664;48.112;11.662;2023-09-08T11:02:05;33.00;41.30
31379;DHT22;61664;48.112;11.662;2023-09-08T11:04:34;32.60;41.80
31379;DHT22;61664;48.112;11.662;2023-09-08T11:07:02;32.30;41.70
31379;DHT22;61664;48.112;11.662;2023-09-08T11:09:35;31.90;41.90
31379;DHT22;61664;48.112;11.662;2023-09-08T11:12:04;31.60;42.50
31379;DHT22;61664;48.112;11.662;2023-09-08T11:14:32;31.30;42.70
31379;DHT22;61664;48.112;11.662;2023-09-08T11:17:02;31.00;43.10
31379;DHT22;61664;48.112;11.662;2023-09-08T11:19:45;30.70;43.60
31379;DHT22;61664;48.112;11.662;2023-09-08T11:22:14;30.60;43.70
31379;DHT22;61664;48.112;11.662;2023-09-08T11:24:43;30.30;44.30
31379;DHT22;61664;48.112;11.662;2023-09-08T11:27:11;30.10;44.70
31379;DHT22;61664;48.112;11.662;2023-09-08T11:29:39;30.00;44.80
31379;DHT22;61664;48.112;11.662;2023-09-08T11:32:09;29.90;45.00
31379;DHT22;61664;48.112;11.662;2023-09-08T11:34:37;29.80;45.10
31379;DHT22;61664;48.112;11.662;2023-09-08T11:37:11;29.70;45.50
31379;DHT22;61664;48.112;11.662;2023-09-08T11:39:40;29.50;46.20
31379;DHT22;61664;48.112;11.662;2023-09-08T11:42:09;29.50;46.10
31379;DHT22;61664;48.112;11.662;2023-09-08T11:44:38;29.40;46.40
31379;DHT22;61664;48.112;11.662;2023-09-08T11:47:07;29.40;46.20
31379;DHT22;61664;48.112;11.662;2023-09-08T11:49:37;29.40;46.70
31379;DHT22;61664;48.112;11.662;2023-09-08T11:52:06;29.40;46.90
31379;DHT22;61664;48.112;11.662;2023-09-08T11:54:34;29.30;46.60
31379;DHT22;61664;48.112;11.662;2023-09-08T11:57:09;29.30;46.50
31379;DHT22;61664;48.112;11.662;2023-09-08T11:59:39;29.30;46.70
31379;DHT22;61664;48.112;11.662;2023-09-08T12:02:07;29.30;46.70
31379;DHT22;61664;48.112;11.662;2023-09-08T12:04:35;29.20;47.30
31379;DHT22;61664;48.112;11.662;2023-09-08T12:07:02;29.20;46.90
31379;DHT22;61664;48.112;11.662;2023-09-08T12:09:30;29.20;47.00
31379;DHT22;61664;48.112;11.662;2023-09-08T12:12:02;29.20;46.90
31379;DHT22;61664;48.112;11.662;2023-09-08T12:14:39;29.20;46.80
31379;DHT22;61664;48.112;11.662;2023-09-08T12:17:08;29.20;46.80
31379;DHT22;61664;48.112;11.662;2023-09-08T12:19:35;29.20;47.30
31379;DHT22;61664;48.112;11.662;2023-09-08T12:22:06;29.20;47.70
31379;DHT22;61664;48.112;11.662;2023-09-08T12:27:20;29.20;47.20
31379;DHT22;61664;48.112;11.662;2023-09-08T12:32:26;29.20;47.50
31379;DHT22;61664;48.112;11.662;2023-09-08T12:34:56;29.20;47.60
31379;DHT22;61664;48.112;11.662;2023-09-08T12:37:24;29.20;47.80
31379;DHT22;61664;48.112;11.662;2023-09-08T12:39:54;29.20;47.70
31379;DHT22;61664;48.112;11.662;2023-09-08T12:42:21;29.20;47.80
31379;DHT22;61664;48.112;11.662;2023-09-08T12:44:52;29.20;48.00
31379;DHT22;61664;48.112;11.662;2023-09-08T12:47:20;29.20;47.70
31379;DHT22;61664;48.112;11.662;2023-09-08T12:49:46;29.30;47.60
31379;DHT22;61664;48.112;11.662;2023-09-08T12:52:13;29.30;48.20
31379;DHT22;61664;48.112;11.662;2023-09-08T12:54:40;29.30;47.50
31379;DHT22;61664;48.112;11.662;2023-09-08T12:57:07;29.30;47.30
31379;DHT22;61664;48.112;11.662;2023-09-08T12:59:34;29.30;47.30
31379;DHT22;61664;48.112;11.662;2023-09-08T13:02:01;29.30;47.50
31379;DHT22;61664;48.112;11.662;2023-09-08T13:04:28;29.30;47.80
31379;DHT22;61664;48.112;11.662;2023-09-08T13:06:55;29.30;47.70
31379;DHT22;61664;48.112;11.662;2023-09-08T13:09:25;29.40;47.70
31379;DHT22;61664;48.112;11.662;2023-09-08T13:11:52;29.40;47.60
31379;DHT22;61664;48.112;11.662;2023-09-08T13:14:19;29.50;48.00
31379;DHT22;61664;48.112;11.662;2023-09-08T13:16:46;29.50;47.90
31379;DHT22;61664;48.112;11.662;2023-09-08T13:19:12;29.60;47.70
31379;DHT22;61664;48.112;11.662;2023-09-08T13:21:39;29.60;47.60
31379;DHT22;61664;48.112;11.662;2023-09-08T13:24:07;29.60;47.50
31379;DHT22;61664;48.112;11.662;2023-09-08T13:26:34;29.70;47.50
31379;DHT22;61664;48.112;11.662;2023-09-08T13:29:01;29.70;47.60
31379;DHT22;61664;48.112;11.662;2023-09-08T13:31:28;29.70;47.60
31379;DHT22;61664;48.112;11.662;2023-09-08T13:33:55;29.80;47.50
31379;DHT22;61664;48.112;11.662;2023-09-08T13:36:22;29.90;47.60
31379;DHT22;61664;48.112;11.662;2023-09-08T13:38:49;30.00;47.40
31379;DHT22;61664;48.112;11.662;2023-09-08T13:41:16;30.10;47.70
31379;DHT22;61664;48.112;11.662;2023-09-08T13:43:43;30.30;47.90
31379;DHT22;61664;48.112;11.662;2023-09-08T13:46:13;30.40;48.20
31379;DHT22;61664;48.112;11.662;2023-09-08T13:48:40;30.60;48.00
31379;DHT22;61664;48.112;11.662;2023-09-08T13:51:09;30.80;48.10
31379;DHT22;61664;48.112;11.662;2023-09-08T13:53:37;31.10;48.00
31379;DHT22;61664;48.112;11.662;2023-09-08T13:56:07;31.30;47.60
31379;DHT22;61664;48.112;11.662;2023-09-08T13:58:35;31.50;47.00
31379;DHT22;61664;48.112;11.662;2023-09-08T14:01:15;31.80;47.00
31379;DHT22;61664;48.112;11.662;2023-09-08T14:03:46;32.10;46.80
31379;DHT22;61664;48.112;11.662;2023-09-08T14:06:16;32.30;46.60
31379;DHT22;61664;48.112;11.662;2023-09-08T14:08:47;32.60;46.50
31379;DHT22;61664;48.112;11.662;2023-09-08T14:11:35;32.90;46.20
31379;DHT22;61664;48.112;11.662;2023-09-08T14:14:21;33.20;46.00
31379;DHT22;61664;48.112;11.662;2023-09-08T14:16:50;33.50;45.50
31379;DHT22;61664;48.112;11.662;2023-09-08T14:19:17;33.80;45.30
31379;DHT22;61664;48.112;11.662;2023-09-08T14:21:47;34.10;44.40
31379;DHT22;61664;48.112;11.662;2023-09-08T14:24:14;34.30;44.40
31379;DHT22;61664;48.112;11.662;2023-09-08T14:26:41;34.50;43.90
31379;DHT22;61664;48.112;11.662;2023-09-08T14:29:08;34.70;43.60
31379;DHT22;61664;48.112;11.662;2023-09-08T14:31:35;34.80;42.90
31379;DHT22;61664;48.112;11.662;2023-09-08T14:34:02;34.90;42.70
31379;DHT22;61664;48.112;11.662;2023-09-08T14:36:30;35.00;42.70
31379;DHT22;61664;48.112;11.662;2023-09-08T14:38:56;35.20;42.00
31379;DHT22;61664;48.112;11.662;2023-09-08T14:41:23;35.30;41.80
31379;DHT22;61664;48.112;11.662;2023-09-08T14:43:50;35.30;41.20
31379;DHT22;61664;48.112;11.662;2023-09-08T14:46:17;35.40;41.10
31379;DHT22;61664;48.112;11.662;2023-09-08T14:48:46;35.40;41.40
31379;DHT22;61664;48.112;11.662;2023-09-08T14:51:13;35.60;41.20
31379;DHT22;61664;48.112;11.662;2023-09-08T14:53:40;35.70;41.20
31379;DHT22;61664;48.112;11.662;2023-09-08T14:56:07;35.80;40.90
31379;DHT22;61664;48.112;11.662;2023-09-08T14:58:34;36.00;40.90
31379;DHT22;61664;48.112;11.662;2023-09-08T15:01:01;36.10;40.80
31379;DHT22;61664;48.112;11.662;2023-09-08T15:03:34;36.20;40.80
31379;DHT22;61664;48.112;11.662;2023-09-08T15:06:02;36.40;40.60
31379;DHT22;61664;48.112;11.662;2023-09-08T15:08:29;36.50;40.60
31379;DHT22;61664;48.112;11.662;2023-09-08T15:10:56;36.60;40.30
31379;DHT22;61664;48.112;11.662;2023-09-08T15:13:23;36.60;40.20
31379;DHT22;61664;48.112;11.662;2023-09-08T15:15:50;36.70;39.70
31379;DHT22;61664;48.112;11.662;2023-09-08T15:18:17;36.60;39.60
31379;DHT22;61664;48.112;11.662;2023-09-08T15:20:53;36.70;39.60
31379;DHT22;61664;48.112;11.662;2023-09-08T15:23:21;36.70;38.80
31379;DHT22;61664;48.112;11.662;2023-09-08T15:25:55;36.70;39.40
31379;DHT22;61664;48.112;11.662;2023-09-08T15:28:24;36.70;38.80
31379;DHT22;61664;48.112;11.662;2023-09-08T15:30:52;36.70;38.90
31379;DHT22;61664;48.112;11.662;2023-09-08T15:33:20;36.60;38.70
31379;DHT22;61664;48.112;11.662;2023-09-08T15:35:50;36.50;38.70